Kalgoorlie-Boulder, Western Australia

11:32 PM AWST on April 21, 2015 (GMT +0800)
Kalgoorlie-Boulder | | Change Station
CLOSE
Current Station
Airport
Location: Kalgoorlie-Boulder,
Elevation: 1204 ft
Nearby Weather Stations

Elev 1204 ft 30.78 °S, 121.45 °E | Updated 32 minutes ago

Clear
Clear
57 °F
Feels Like 57 °F
N
5
Wind Variable Wind from NE

Today
High -- | Low -- °F
--% Chance of Precip.
Yesterday
High -- | Low -- °F
Precip. -- in
6:17 AM 5:28 PM
Waxing Crescent, 11% visible
Pressure 30.21 in
Visibility 6.2 miles
Clouds
Dew Point 37 °F
Humidity 48%
Rainfall 0.00 in
Snow Depth Not available.
UV Not available.
Pollen Not available.
Air Quality Not available.
Flu Activity Not available.
METAR YPKG 211500Z AUTO 04004KT 9999 // NCD 14/03 Q1023

More Conditions Fewer Conditions

Pressure 30.21 in
Visibility 6.2 miles
Clouds
Dew Point 37 °F
Humidity 48%
Rainfall 0.00 in
Snow Depth Not available.
UV Not available.
Pollen Not available.
Air Quality Not available.
Flu Activity Not available.
METAR YPKG 211500Z AUTO 04004KT 9999 // NCD 14/03 Q1023

More Conditions Fewer Conditions

10-Day Weather Forecast

Almanac

Astronomy

Apr. 21, 2015 Rise Set
Actual Time
Civil Twilight
Nautical Twilight
Astronomical Twilight
Moon
Length of Visible Light
Length of Day
Tomorrow will be .
, % of the Moon is Illuminated

Today's Extremes

Country Highs Country Lows

Community

WunderPhotos

Upload Photos

1,815,422 photos uploaded!

WunderBlogs® & News

Nearby

Air Quality

  Air Quality AQ Index Pollutant
Not available.

Snow Depth

Station Depth Elevation

Earthquake Activity

City Distance Mag. Time & Date
Minimum magnitude displayed is 2.5.

Coastal Water Temperatures

Place Temperature

Stations

Nearby Weather Stations

Station Location Temp. Windchill Dew Point Humidity Wind Precip. Elev Updated Type